sensor_id;sensor_type;location;lat;lon;timestamp;P1;durP1;ratioP1;P2;durP2;ratioP2
48076;SDS011;33854;57.708;12.008;2022-07-18T00:02:24;0.00;;;0.00;;
48076;SDS011;33854;57.708;12.008;2022-07-18T00:04:51;0.00;;;0.00;;
48076;SDS011;33854;57.708;12.008;2022-07-18T00:07:17;0.00;;;0.00;;
48076;SDS011;33854;57.708;12.008;2022-07-18T00:09:43;0.00;;;0.00;;
48076;SDS011;33854;57.708;12.008;2022-07-18T00:12:09;0.10;;;0.10;;
48076;SDS011;33854;57.708;12.008;2022-07-18T00:14:37;0.00;;;0.00;;
48076;SDS011;33854;57.708;12.008;2022-07-18T00:17:03;0.00;;;0.00;;
48076;SDS011;33854;57.708;12.008;2022-07-18T00:19:30;0.30;;;0.30;;
48076;SDS011;33854;57.708;12.008;2022-07-18T00:21:56;0.00;;;0.00;;
48076;SDS011;33854;57.708;12.008;2022-07-18T00:24:22;0.00;;;0.00;;
48076;SDS011;33854;57.708;12.008;2022-07-18T00:26:47;0.00;;;0.00;;
48076;SDS011;33854;57.708;12.008;2022-07-18T00:29:12;0.07;;;0.07;;
48076;SDS011;33854;57.708;12.008;2022-07-18T00:31:38;0.00;;;0.00;;
48076;SDS011;33854;57.708;12.008;2022-07-18T00:34:04;0.00;;;0.00;;
48076;SDS011;33854;57.708;12.008;2022-07-18T00:36:30;0.03;;;0.03;;
48076;SDS011;33854;57.708;12.008;2022-07-18T00:38:55;0.00;;;0.00;;
48076;SDS011;33854;57.708;12.008;2022-07-18T00:41:22;0.10;;;0.10;;
48076;SDS011;33854;57.708;12.008;2022-07-18T00:43:47;0.00;;;0.00;;
48076;SDS011;33854;57.708;12.008;2022-07-18T00:46:13;0.00;;;0.00;;
48076;SDS011;33854;57.708;12.008;2022-07-18T00:48:42;0.00;;;0.00;;
48076;SDS011;33854;57.708;12.008;2022-07-18T00:51:08;0.00;;;0.00;;
48076;SDS011;33854;57.708;12.008;2022-07-18T00:53:34;0.00;;;0.00;;
48076;SDS011;33854;57.708;12.008;2022-07-18T00:56:01;0.20;;;0.20;;
48076;SDS011;33854;57.708;12.008;2022-07-18T00:58:28;0.00;;;0.00;;
48076;SDS011;33854;57.708;12.008;2022-07-18T01:00:55;1.45;;;0.20;;
48076;SDS011;33854;57.708;12.008;2022-07-18T01:03:40;0.00;;;0.00;;
48076;SDS011;33854;57.708;12.008;2022-07-18T01:06:06;0.00;;;0.00;;
48076;SDS011;33854;57.708;12.008;2022-07-18T01:08:31;0.00;;;0.00;;
48076;SDS011;33854;57.708;12.008;2022-07-18T01:10:57;0.00;;;0.00;;
48076;SDS011;33854;57.708;12.008;2022-07-18T01:13:23;0.10;;;0.10;;
48076;SDS011;33854;57.708;12.008;2022-07-18T01:15:48;0.10;;;0.10;;
48076;SDS011;33854;57.708;12.008;2022-07-18T01:18:14;0.00;;;0.00;;
48076;SDS011;33854;57.708;12.008;2022-07-18T01:20:39;0.87;;;0.10;;
48076;SDS011;33854;57.708;12.008;2022-07-18T01:23:04;0.00;;;0.00;;
48076;SDS011;33854;57.708;12.008;2022-07-18T01:25:30;0.10;;;0.10;;
48076;SDS011;33854;57.708;12.008;2022-07-18T01:27:56;0.00;;;0.00;;
48076;SDS011;33854;57.708;12.008;2022-07-18T01:30:22;0.00;;;0.00;;
48076;SDS011;33854;57.708;12.008;2022-07-18T01:35:24;0.00;;;0.00;;
48076;SDS011;33854;57.708;12.008;2022-07-18T01:37:51;0.00;;;0.00;;
48076;SDS011;33854;57.708;12.008;2022-07-18T01:40:17;0.00;;;0.00;;
48076;SDS011;33854;57.708;12.008;2022-07-18T01:42:42;0.00;;;0.00;;
48076;SDS011;33854;57.708;12.008;2022-07-18T01:45:08;0.00;;;0.00;;
48076;SDS011;33854;57.708;12.008;2022-07-18T01:47:33;0.00;;;0.00;;
48076;SDS011;33854;57.708;12.008;2022-07-18T01:49:59;0.00;;;0.00;;
48076;SDS011;33854;57.708;12.008;2022-07-18T01:52:24;0.00;;;0.00;;
48076;SDS011;33854;57.708;12.008;2022-07-18T01:54:49;0.00;;;0.00;;
48076;SDS011;33854;57.708;12.008;2022-07-18T01:57:15;0.00;;;0.00;;
48076;SDS011;33854;57.708;12.008;2022-07-18T01:59:40;0.10;;;0.10;;
48076;SDS011;33854;57.708;12.008;2022-07-18T02:02:06;0.10;;;0.10;;
48076;SDS011;33854;57.708;12.008;2022-07-18T02:04:31;0.00;;;0.00;;
48076;SDS011;33854;57.708;12.008;2022-07-18T02:07:15;0.00;;;0.00;;
48076;SDS011;33854;57.708;12.008;2022-07-18T02:09:41;0.00;;;0.00;;
48076;SDS011;33854;57.708;12.008;2022-07-18T02:12:06;0.00;;;0.00;;
48076;SDS011;33854;57.708;12.008;2022-07-18T02:14:32;0.00;;;0.00;;
48076;SDS011;33854;57.708;12.008;2022-07-18T02:16:57;0.00;;;0.00;;
48076;SDS011;33854;57.708;12.008;2022-07-18T02:19:22;0.63;;;0.63;;
48076;SDS011;33854;57.708;12.008;2022-07-18T02:21:48;0.00;;;0.00;;
48076;SDS011;33854;57.708;12.008;2022-07-18T02:24:13;0.00;;;0.00;;
48076;SDS011;33854;57.708;12.008;2022-07-18T02:26:39;0.00;;;0.00;;
48076;SDS011;33854;57.708;12.008;2022-07-18T02:29:04;0.37;;;0.37;;
48076;SDS011;33854;57.708;12.008;2022-07-18T02:31:29;0.00;;;0.00;;
48076;SDS011;33854;57.708;12.008;2022-07-18T02:33:55;0.00;;;0.00;;
48076;SDS011;33854;57.708;12.008;2022-07-18T02:36:20;0.00;;;0.00;;
48076;SDS011;33854;57.708;12.008;2022-07-18T02:38:45;0.30;;;0.23;;
48076;SDS011;33854;57.708;12.008;2022-07-18T02:41:11;0.00;;;0.00;;
48076;SDS011;33854;57.708;12.008;2022-07-18T02:43:36;0.00;;;0.00;;
48076;SDS011;33854;57.708;12.008;2022-07-18T02:46:02;0.17;;;0.17;;
48076;SDS011;33854;57.708;12.008;2022-07-18T02:48:28;0.00;;;0.00;;
48076;SDS011;33854;57.708;12.008;2022-07-18T02:50:54;0.00;;;0.00;;
48076;SDS011;33854;57.708;12.008;2022-07-18T02:53:19;0.00;;;0.00;;
48076;SDS011;33854;57.708;12.008;2022-07-18T02:55:48;0.10;;;0.10;;
48076;SDS011;33854;57.708;12.008;2022-07-18T02:58:14;0.10;;;0.10;;
48076;SDS011;33854;57.708;12.008;2022-07-18T03:00:39;1.70;;;0.50;;
48076;SDS011;33854;57.708;12.008;2022-07-18T03:03:04;0.20;;;0.20;;
48076;SDS011;33854;57.708;12.008;2022-07-18T03:05:30;0.00;;;0.00;;
48076;SDS011;33854;57.708;12.008;2022-07-18T03:07:55;0.00;;;0.00;;
48076;SDS011;33854;57.708;12.008;2022-07-18T03:10:20;0.07;;;0.07;;
48076;SDS011;33854;57.708;12.008;2022-07-18T03:12:46;0.23;;;0.23;;
48076;SDS011;33854;57.708;12.008;2022-07-18T03:15:11;0.00;;;0.00;;
48076;SDS011;33854;57.708;12.008;2022-07-18T03:17:37;2.60;;;1.10;;
48076;SDS011;33854;57.708;12.008;2022-07-18T03:20:02;0.00;;;0.00;;
48076;SDS011;33854;57.708;12.008;2022-07-18T03:22:28;2.30;;;0.10;;
48076;SDS011;33854;57.708;12.008;2022-07-18T03:24:54;0.00;;;0.00;;
48076;SDS011;33854;57.708;12.008;2022-07-18T03:27:19;0.00;;;0.00;;
48076;SDS011;33854;57.708;12.008;2022-07-18T03:29:44;0.00;;;0.00;;
48076;SDS011;33854;57.708;12.008;2022-07-18T03:32:10;0.00;;;0.00;;
48076;SDS011;33854;57.708;12.008;2022-07-18T03:34:35;0.03;;;0.03;;
48076;SDS011;33854;57.708;12.008;2022-07-18T03:37:01;0.00;;;0.00;;
48076;SDS011;33854;57.708;12.008;2022-07-18T03:39:26;0.00;;;0.00;;
48076;SDS011;33854;57.708;12.008;2022-07-18T03:41:51;0.50;;;0.50;;
48076;SDS011;33854;57.708;12.008;2022-07-18T03:44:17;0.00;;;0.00;;
48076;SDS011;33854;57.708;12.008;2022-07-18T03:46:42;0.00;;;0.00;;
48076;SDS011;33854;57.708;12.008;2022-07-18T03:49:08;0.00;;;0.00;;
48076;SDS011;33854;57.708;12.008;2022-07-18T03:51:34;0.00;;;0.00;;
48076;SDS011;33854;57.708;12.008;2022-07-18T03:53:59;0.00;;;0.00;;
48076;SDS011;33854;57.708;12.008;2022-07-18T03:56:24;0.00;;;0.00;;
48076;SDS011;33854;57.708;12.008;2022-07-18T03:58:50;0.00;;;0.00;;
48076;SDS011;33854;57.708;12.008;2022-07-18T04:01:15;0.00;;;0.00;;
48076;SDS011;33854;57.708;12.008;2022-07-18T04:03:41;0.00;;;0.00;;
48076;SDS011;33854;57.708;12.008;2022-07-18T04:06:06;0.00;;;0.00;;
48076;SDS011;33854;57.708;12.008;2022-07-18T04:08:32;0.00;;;0.00;;
48076;SDS011;33854;57.708;12.008;2022-07-18T04:10:57;0.30;;;0.30;;
48076;SDS011;33854;57.708;12.008;2022-07-18T04:13:22;0.00;;;0.00;;
48076;SDS011;33854;57.708;12.008;2022-07-18T04:15:48;0.10;;;0.10;;
48076;SDS011;33854;57.708;12.008;2022-07-18T04:18:13;0.00;;;0.00;;
48076;SDS011;33854;57.708;12.008;2022-07-18T04:20:39;0.00;;;0.00;;
48076;SDS011;33854;57.708;12.008;2022-07-18T04:23:05;0.00;;;0.00;;
48076;SDS011;33854;57.708;12.008;2022-07-18T04:25:41;0.00;;;0.00;;
48076;SDS011;33854;57.708;12.008;2022-07-18T04:28:08;0.00;;;0.00;;
48076;SDS011;33854;57.708;12.008;2022-07-18T04:30:36;0.00;;;0.00;;
48076;SDS011;33854;57.708;12.008;2022-07-18T04:33:03;2.45;;;0.57;;
48076;SDS011;33854;57.708;12.008;2022-07-18T04:35:29;0.10;;;0.10;;
48076;SDS011;33854;57.708;12.008;2022-07-18T04:37:55;0.00;;;0.00;;
48076;SDS011;33854;57.708;12.008;2022-07-18T04:40:20;0.00;;;0.00;;
48076;SDS011;33854;57.708;12.008;2022-07-18T04:42:46;0.00;;;0.00;;
48076;SDS011;33854;57.708;12.008;2022-07-18T04:45:12;0.53;;;0.50;;
48076;SDS011;33854;57.708;12.008;2022-07-18T04:47:37;0.00;;;0.00;;
48076;SDS011;33854;57.708;12.008;2022-07-18T04:50:03;0.20;;;0.20;;
48076;SDS011;33854;57.708;12.008;2022-07-18T04:55:05;0.00;;;0.00;;
48076;SDS011;33854;57.708;12.008;2022-07-18T04:57:32;0.00;;;0.00;;
48076;SDS011;33854;57.708;12.008;2022-07-18T04:59:57;0.00;;;0.00;;
48076;SDS011;33854;57.708;12.008;2022-07-18T05:02:23;0.03;;;0.03;;
48076;SDS011;33854;57.708;12.008;2022-07-18T05:04:48;0.10;;;0.10;;
48076;SDS011;33854;57.708;12.008;2022-07-18T05:07:13;0.00;;;0.00;;
48076;SDS011;33854;57.708;12.008;2022-07-18T05:09:39;0.00;;;0.00;;
48076;SDS011;33854;57.708;12.008;2022-07-18T05:12:04;0.27;;;0.27;;
48076;SDS011;33854;57.708;12.008;2022-07-18T05:14:30;0.10;;;0.10;;
48076;SDS011;33854;57.708;12.008;2022-07-18T05:16:55;0.00;;;0.00;;
48076;SDS011;33854;57.708;12.008;2022-07-18T05:19:21;0.00;;;0.00;;
48076;SDS011;33854;57.708;12.008;2022-07-18T05:21:46;0.10;;;0.10;;
48076;SDS011;33854;57.708;12.008;2022-07-18T05:24:11;0.50;;;0.50;;
48076;SDS011;33854;57.708;12.008;2022-07-18T05:26:38;0.00;;;0.00;;
48076;SDS011;33854;57.708;12.008;2022-07-18T05:29:03;0.00;;;0.00;;
48076;SDS011;33854;57.708;12.008;2022-07-18T05:31:29;0.00;;;0.00;;
48076;SDS011;33854;57.708;12.008;2022-07-18T05:33:54;0.00;;;0.00;;
48076;SDS011;33854;57.708;12.008;2022-07-18T05:36:20;0.00;;;0.00;;
48076;SDS011;33854;57.708;12.008;2022-07-18T05:38:45;0.00;;;0.00;;
48076;SDS011;33854;57.708;12.008;2022-07-18T05:41:10;0.00;;;0.00;;
48076;SDS011;33854;57.708;12.008;2022-07-18T05:43:36;0.10;;;0.10;;
48076;SDS011;33854;57.708;12.008;2022-07-18T05:46:01;0.10;;;0.10;;
48076;SDS011;33854;57.708;12.008;2022-07-18T05:48:27;0.00;;;0.00;;
48076;SDS011;33854;57.708;12.008;2022-07-18T05:50:52;0.00;;;0.00;;
48076;SDS011;33854;57.708;12.008;2022-07-18T05:53:18;0.10;;;0.10;;
48076;SDS011;33854;57.708;12.008;2022-07-18T05:55:43;0.00;;;0.00;;
48076;SDS011;33854;57.708;12.008;2022-07-18T05:58:08;0.00;;;0.00;;
48076;SDS011;33854;57.708;12.008;2022-07-18T06:00:34;0.10;;;0.10;;
48076;SDS011;33854;57.708;12.008;2022-07-18T06:02:59;0.00;;;0.00;;
48076;SDS011;33854;57.708;12.008;2022-07-18T06:05:25;16.17;;;0.50;;
48076;SDS011;33854;57.708;12.008;2022-07-18T06:07:52;0.00;;;0.00;;
48076;SDS011;33854;57.708;12.008;2022-07-18T06:10:19;0.45;;;0.10;;
48076;SDS011;33854;57.708;12.008;2022-07-18T06:12:45;0.00;;;0.00;;
48076;SDS011;33854;57.708;12.008;2022-07-18T06:15:10;0.10;;;0.10;;
48076;SDS011;33854;57.708;12.008;2022-07-18T06:17:36;0.00;;;0.00;;
48076;SDS011;33854;57.708;12.008;2022-07-18T06:20:02;0.00;;;0.00;;
48076;SDS011;33854;57.708;12.008;2022-07-18T06:22:30;0.00;;;0.00;;
48076;SDS011;33854;57.708;12.008;2022-07-18T06:24:55;0.00;;;0.00;;
48076;SDS011;33854;57.708;12.008;2022-07-18T06:27:21;0.00;;;0.00;;
48076;SDS011;33854;57.708;12.008;2022-07-18T06:29:46;0.10;;;0.10;;
48076;SDS011;33854;57.708;12.008;2022-07-18T06:32:12;0.63;;;0.63;;
48076;SDS011;33854;57.708;12.008;2022-07-18T06:34:37;0.97;;;0.57;;
48076;SDS011;33854;57.708;12.008;2022-07-18T06:37:02;0.00;;;0.00;;
48076;SDS011;33854;57.708;12.008;2022-07-18T06:39:28;0.00;;;0.00;;
48076;SDS011;33854;57.708;12.008;2022-07-18T06:41:53;0.10;;;0.10;;
48076;SDS011;33854;57.708;12.008;2022-07-18T06:44:19;0.00;;;0.00;;
48076;SDS011;33854;57.708;12.008;2022-07-18T06:46:44;0.13;;;0.10;;
48076;SDS011;33854;57.708;12.008;2022-07-18T06:49:09;0.00;;;0.00;;
48076;SDS011;33854;57.708;12.008;2022-07-18T06:51:35;0.00;;;0.00;;
48076;SDS011;33854;57.708;12.008;2022-07-18T06:54:01;0.03;;;0.03;;
48076;SDS011;33854;57.708;12.008;2022-07-18T06:56:26;0.20;;;0.20;;
48076;SDS011;33854;57.708;12.008;2022-07-18T06:58:52;0.20;;;0.03;;
48076;SDS011;33854;57.708;12.008;2022-07-18T07:01:19;0.07;;;0.07;;
48076;SDS011;33854;57.708;12.008;2022-07-18T07:03:45;0.00;;;0.00;;
48076;SDS011;33854;57.708;12.008;2022-07-18T07:06:11;0.00;;;0.00;;
48076;SDS011;33854;57.708;12.008;2022-07-18T07:08:37;0.00;;;0.00;;
48076;SDS011;33854;57.708;12.008;2022-07-18T07:11:02;0.00;;;0.00;;
48076;SDS011;33854;57.708;12.008;2022-07-18T07:13:28;0.00;;;0.00;;
48076;SDS011;33854;57.708;12.008;2022-07-18T07:15:53;0.10;;;0.10;;
48076;SDS011;33854;57.708;12.008;2022-07-18T07:18:19;0.10;;;0.10;;
48076;SDS011;33854;57.708;12.008;2022-07-18T07:20:45;0.03;;;0.03;;
48076;SDS011;33854;57.708;12.008;2022-07-18T07:23:10;0.40;;;0.40;;
48076;SDS011;33854;57.708;12.008;2022-07-18T07:25:36;0.07;;;0.07;;
48076;SDS011;33854;57.708;12.008;2022-07-18T07:28:03;0.65;;;0.30;;
48076;SDS011;33854;57.708;12.008;2022-07-18T07:30:29;0.22;;;0.10;;
48076;SDS011;33854;57.708;12.008;2022-07-18T07:32:55;0.00;;;0.00;;
48076;SDS011;33854;57.708;12.008;2022-07-18T07:35:21;0.00;;;0.00;;
48076;SDS011;33854;57.708;12.008;2022-07-18T07:37:48;0.00;;;0.00;;
48076;SDS011;33854;57.708;12.008;2022-07-18T07:40:15;0.00;;;0.00;;
48076;SDS011;33854;57.708;12.008;2022-07-18T07:42:41;0.30;;;0.30;;
48076;SDS011;33854;57.708;12.008;2022-07-18T07:45:07;0.00;;;0.00;;
48076;SDS011;33854;57.708;12.008;2022-07-18T07:47:34;0.00;;;0.00;;
48076;SDS011;33854;57.708;12.008;2022-07-18T07:50:00;0.00;;;0.00;;
48076;SDS011;33854;57.708;12.008;2022-07-18T07:52:26;0.10;;;0.10;;
48076;SDS011;33854;57.708;12.008;2022-07-18T07:54:53;0.00;;;0.00;;
48076;SDS011;33854;57.708;12.008;2022-07-18T07:57:19;0.00;;;0.00;;
48076;SDS011;33854;57.708;12.008;2022-07-18T07:59:44;0.00;;;0.00;;
48076;SDS011;33854;57.708;12.008;2022-07-18T08:02:10;0.93;;;0.43;;
48076;SDS011;33854;57.708;12.008;2022-07-18T08:04:35;0.20;;;0.20;;
48076;SDS011;33854;57.708;12.008;2022-07-18T08:07:01;0.10;;;0.07;;
48076;SDS011;33854;57.708;12.008;2022-07-18T08:09:26;0.20;;;0.10;;
48076;SDS011;33854;57.708;12.008;2022-07-18T08:11:51;0.00;;;0.00;;
48076;SDS011;33854;57.708;12.008;2022-07-18T08:14:17;0.00;;;0.00;;
48076;SDS011;33854;57.708;12.008;2022-07-18T08:16:42;0.00;;;0.00;;
48076;SDS011;33854;57.708;12.008;2022-07-18T08:19:08;0.33;;;0.33;;
48076;SDS011;33854;57.708;12.008;2022-07-18T08:21:34;0.00;;;0.00;;
48076;SDS011;33854;57.708;12.008;2022-07-18T08:23:59;0.00;;;0.00;;
48076;SDS011;33854;57.708;12.008;2022-07-18T08:26:25;0.20;;;0.20;;
48076;SDS011;33854;57.708;12.008;2022-07-18T08:28:51;0.03;;;0.03;;
48076;SDS011;33854;57.708;12.008;2022-07-18T08:31:16;0.00;;;0.00;;
48076;SDS011;33854;57.708;12.008;2022-07-18T08:33:43;0.00;;;0.00;;
48076;SDS011;33854;57.708;12.008;2022-07-18T08:36:12;0.10;;;0.10;;
48076;SDS011;33854;57.708;12.008;2022-07-18T08:38:38;0.00;;;0.00;;
48076;SDS011;33854;57.708;12.008;2022-07-18T08:41:04;0.05;;;0.05;;
48076;SDS011;33854;57.708;12.008;2022-07-18T08:43:30;0.77;;;0.30;;
48076;SDS011;33854;57.708;12.008;2022-07-18T08:45:59;0.00;;;0.00;;
48076;SDS011;33854;57.708;12.008;2022-07-18T08:48:27;0.00;;;0.00;;
48076;SDS011;33854;57.708;12.008;2022-07-18T08:50:52;0.00;;;0.00;;
48076;SDS011;33854;57.708;12.008;2022-07-18T08:53:18;0.10;;;0.10;;
48076;SDS011;33854;57.708;12.008;2022-07-18T08:55:45;0.13;;;0.13;;
48076;SDS011;33854;57.708;12.008;2022-07-18T08:58:11;1.15;;;0.65;;
48076;SDS011;33854;57.708;12.008;2022-07-18T09:00:38;0.00;;;0.00;;
48076;SDS011;33854;57.708;12.008;2022-07-18T09:03:04;0.33;;;0.33;;
48076;SDS011;33854;57.708;12.008;2022-07-18T09:05:30;0.87;;;0.60;;
48076;SDS011;33854;57.708;12.008;2022-07-18T09:08:09;0.00;;;0.00;;
48076;SDS011;33854;57.708;12.008;2022-07-18T09:13:24;0.15;;;0.15;;
48076;SDS011;33854;57.708;12.008;2022-07-18T09:15:58;0.30;;;0.30;;
48076;SDS011;33854;57.708;12.008;2022-07-18T09:18:30;0.20;;;0.20;;
48076;SDS011;33854;57.708;12.008;2022-07-18T09:20:58;0.00;;;0.00;;
48076;SDS011;33854;57.708;12.008;2022-07-18T09:23:28;0.00;;;0.00;;
48076;SDS011;33854;57.708;12.008;2022-07-18T09:25:55;0.30;;;0.30;;
48076;SDS011;33854;57.708;12.008;2022-07-18T09:28:20;0.00;;;0.00;;
48076;SDS011;33854;57.708;12.008;2022-07-18T09:30:45;0.00;;;0.00;;
48076;SDS011;33854;57.708;12.008;2022-07-18T09:33:11;17.37;;;7.87;;
48076;SDS011;33854;57.708;12.008;2022-07-18T09:35:42;16.77;;;9.40;;
48076;SDS011;33854;57.708;12.008;2022-07-18T09:38:10;19.27;;;8.00;;
48076;SDS011;33854;57.708;12.008;2022-07-18T09:40:39;19.70;;;8.88;;
48076;SDS011;33854;57.708;12.008;2022-07-18T09:43:12;14.75;;;7.88;;
48076;SDS011;33854;57.708;12.008;2022-07-18T09:45:40;15.30;;;8.35;;
48076;SDS011;33854;57.708;12.008;2022-07-18T09:48:12;19.65;;;9.23;;
48076;SDS011;33854;57.708;12.008;2022-07-18T09:50:49;12.48;;;6.80;;
48076;SDS011;33854;57.708;12.008;2022-07-18T09:53:19;14.63;;;7.20;;
48076;SDS011;33854;57.708;12.008;2022-07-18T09:58:23;16.52;;;8.27;;
48076;SDS011;33854;57.708;12.008;2022-07-18T10:00:54;17.02;;;8.65;;
48076;SDS011;33854;57.708;12.008;2022-07-18T10:03:20;19.65;;;8.70;;
48076;SDS011;33854;57.708;12.008;2022-07-18T10:05:48;15.90;;;8.90;;
48076;SDS011;33854;57.708;12.008;2022-07-18T10:08:15;17.13;;;8.75;;
48076;SDS011;33854;57.708;12.008;2022-07-18T10:10:43;19.63;;;8.77;;
48076;SDS011;33854;57.708;12.008;2022-07-18T10:13:10;17.52;;;7.50;;
48076;SDS011;33854;57.708;12.008;2022-07-18T10:15:38;16.50;;;8.32;;
48076;SDS011;33854;57.708;12.008;2022-07-18T10:18:05;18.17;;;9.10;;
48076;SDS011;33854;57.708;12.008;2022-07-18T10:20:39;16.00;;;8.18;;
48076;SDS011;33854;57.708;12.008;2022-07-18T10:23:20;18.27;;;8.07;;
48076;SDS011;33854;57.708;12.008;2022-07-18T10:26:07;15.30;;;7.68;;
48076;SDS011;33854;57.708;12.008;2022-07-18T10:31:21;14.85;;;8.82;;
48076;SDS011;33854;57.708;12.008;2022-07-18T10:33:48;16.77;;;7.75;;
48076;SDS011;33854;57.708;12.008;2022-07-18T10:36:14;21.48;;;9.27;;
48076;SDS011;33854;57.708;12.008;2022-07-18T10:41:33;13.48;;;8.30;;
48076;SDS011;33854;57.708;12.008;2022-07-18T10:57:40;12.40;;;8.00;;
48076;SDS011;33854;57.708;12.008;2022-07-18T11:00:28;11.60;;;7.95;;
48076;SDS011;33854;57.708;12.008;2022-07-18T11:03:06;15.18;;;8.55;;
48076;SDS011;33854;57.708;12.008;2022-07-18T11:05:36;16.17;;;7.88;;
48076;SDS011;33854;57.708;12.008;2022-07-18T11:15:59;15.73;;;7.85;;
48076;SDS011;33854;57.708;12.008;2022-07-18T11:21:25;11.90;;;7.07;;
48076;SDS011;33854;57.708;12.008;2022-07-18T11:26:42;11.07;;;6.70;;
48076;SDS011;33854;57.708;12.008;2022-07-18T11:29:10;10.95;;;6.60;;
48076;SDS011;33854;57.708;12.008;2022-07-18T11:34:13;10.88;;;6.38;;
48076;SDS011;33854;57.708;12.008;2022-07-18T11:36:41;10.48;;;6.63;;
48076;SDS011;33854;57.708;12.008;2022-07-18T11:39:07;14.02;;;6.47;;
48076;SDS011;33854;57.708;12.008;2022-07-18T11:41:35;9.15;;;6.22;;
48076;SDS011;33854;57.708;12.008;2022-07-18T11:44:02;13.18;;;6.68;;
48076;SDS011;33854;57.708;12.008;2022-07-18T11:46:28;13.35;;;7.32;;
48076;SDS011;33854;57.708;12.008;2022-07-18T11:49:04;15.40;;;6.38;;
48076;SDS011;33854;57.708;12.008;2022-07-18T11:51:48;17.60;;;7.07;;
48076;SDS011;33854;57.708;12.008;2022-07-18T11:54:14;11.85;;;7.15;;
48076;SDS011;33854;57.708;12.008;2022-07-18T11:56:49;14.05;;;7.18;;
48076;SDS011;33854;57.708;12.008;2022-07-18T11:59:16;12.07;;;6.60;;
48076;SDS011;33854;57.708;12.008;2022-07-18T12:01:41;12.98;;;6.20;;
48076;SDS011;33854;57.708;12.008;2022-07-18T12:04:14;7.35;;;5.25;;
48076;SDS011;33854;57.708;12.008;2022-07-18T12:06:43;9.35;;;5.20;;
48076;SDS011;33854;57.708;12.008;2022-07-18T12:09:09;11.20;;;5.00;;
48076;SDS011;33854;57.708;12.008;2022-07-18T12:11:35;5.67;;;4.50;;
48076;SDS011;33854;57.708;12.008;2022-07-18T12:22:23;9.38;;;4.30;;
48076;SDS011;33854;57.708;12.008;2022-07-18T12:24:31;11.80;;;4.82;;
48076;SDS011;33854;57.708;12.008;2022-07-18T12:32:41;12.40;;;4.72;;
48076;SDS011;33854;57.708;12.008;2022-07-18T12:35:14;7.90;;;4.07;;
48076;SDS011;33854;57.708;12.008;2022-07-18T12:38:29;17.67;;;8.50;;
48076;SDS011;33854;57.708;12.008;2022-07-18T12:43:30;24.75;;;13.65;;
48076;SDS011;33854;57.708;12.008;2022-07-18T12:45:58;36.20;;;18.13;;
48076;SDS011;33854;57.708;12.008;2022-07-18T12:48:29;26.13;;;14.30;;
48076;SDS011;33854;57.708;12.008;2022-07-18T12:51:03;38.22;;;17.55;;
48076;SDS011;33854;57.708;12.008;2022-07-18T12:53:33;20.40;;;9.57;;
48076;SDS011;33854;57.708;12.008;2022-07-18T12:56:01;25.95;;;14.43;;
48076;SDS011;33854;57.708;12.008;2022-07-18T12:58:26;13.02;;;6.15;;
48076;SDS011;33854;57.708;12.008;2022-07-18T13:00:52;15.93;;;7.57;;
48076;SDS011;33854;57.708;12.008;2022-07-18T13:03:20;9.68;;;4.90;;
48076;SDS011;33854;57.708;12.008;2022-07-18T13:05:45;10.77;;;5.77;;
48076;SDS011;33854;57.708;12.008;2022-07-18T13:08:11;12.17;;;7.30;;
48076;SDS011;33854;57.708;12.008;2022-07-18T13:10:37;9.97;;;5.43;;
48076;SDS011;33854;57.708;12.008;2022-07-18T13:13:07;11.27;;;5.43;;
48076;SDS011;33854;57.708;12.008;2022-07-18T13:15:33;11.32;;;5.50;;
48076;SDS011;33854;57.708;12.008;2022-07-18T13:18:00;8.88;;;4.03;;
48076;SDS011;33854;57.708;12.008;2022-07-18T13:20:26;10.25;;;5.10;;
48076;SDS011;33854;57.708;12.008;2022-07-18T13:22:52;6.15;;;3.83;;
48076;SDS011;33854;57.708;12.008;2022-07-18T13:27:43;13.60;;;4.55;;
48076;SDS011;33854;57.708;12.008;2022-07-18T13:30:09;7.33;;;4.23;;
48076;SDS011;33854;57.708;12.008;2022-07-18T13:32:35;8.18;;;4.50;;
48076;SDS011;33854;57.708;12.008;2022-07-18T13:35:01;10.60;;;4.88;;
48076;SDS011;33854;57.708;12.008;2022-07-18T13:37:27;7.93;;;4.40;;
48076;SDS011;33854;57.708;12.008;2022-07-18T13:39:52;11.85;;;4.90;;
48076;SDS011;33854;57.708;12.008;2022-07-18T13:42:18;8.02;;;4.18;;
48076;SDS011;33854;57.708;12.008;2022-07-18T13:44:44;10.10;;;4.95;;
48076;SDS011;33854;57.708;12.008;2022-07-18T13:47:10;6.47;;;4.07;;
48076;SDS011;33854;57.708;12.008;2022-07-18T13:49:37;10.57;;;4.93;;
48076;SDS011;33854;57.708;12.008;2022-07-18T13:52:02;9.30;;;4.65;;
48076;SDS011;33854;57.708;12.008;2022-07-18T13:54:28;10.02;;;4.97;;
48076;SDS011;33854;57.708;12.008;2022-07-18T13:56:53;7.77;;;4.00;;
48076;SDS011;33854;57.708;12.008;2022-07-18T13:59:19;7.43;;;4.20;;
48076;SDS011;33854;57.708;12.008;2022-07-18T14:01:44;7.30;;;4.97;;
48076;SDS011;33854;57.708;12.008;2022-07-18T14:04:10;7.97;;;4.63;;
48076;SDS011;33854;57.708;12.008;2022-07-18T14:06:35;9.35;;;4.45;;
48076;SDS011;33854;57.708;12.008;2022-07-18T14:09:02;8.10;;;3.20;;
48076;SDS011;33854;57.708;12.008;2022-07-18T14:11:31;8.85;;;4.78;;
48076;SDS011;33854;57.708;12.008;2022-07-18T14:14:00;8.70;;;4.32;;
48076;SDS011;33854;57.708;12.008;2022-07-18T14:16:27;6.85;;;3.83;;
48076;SDS011;33854;57.708;12.008;2022-07-18T14:18:52;7.90;;;4.65;;
48076;SDS011;33854;57.708;12.008;2022-07-18T14:21:18;7.43;;;4.57;;
48076;SDS011;33854;57.708;12.008;2022-07-18T14:23:43;6.23;;;4.10;;
48076;SDS011;33854;57.708;12.008;2022-07-18T14:26:09;7.97;;;4.50;;
48076;SDS011;33854;57.708;12.008;2022-07-18T14:28:34;8.27;;;4.97;;
48076;SDS011;33854;57.708;12.008;2022-07-18T14:30:59;7.33;;;4.60;;
48076;SDS011;33854;57.708;12.008;2022-07-18T14:33:25;7.17;;;4.07;;
48076;SDS011;33854;57.708;12.008;2022-07-18T14:35:50;7.73;;;4.00;;
48076;SDS011;33854;57.708;12.008;2022-07-18T14:38:16;10.47;;;4.50;;
48076;SDS011;33854;57.708;12.008;2022-07-18T14:40:41;10.70;;;4.40;;
48076;SDS011;33854;57.708;12.008;2022-07-18T14:43:07;8.70;;;4.60;;
48076;SDS011;33854;57.708;12.008;2022-07-18T14:45:32;7.20;;;4.20;;
48076;SDS011;33854;57.708;12.008;2022-07-18T14:47:58;8.90;;;3.97;;
48076;SDS011;33854;57.708;12.008;2022-07-18T14:50:23;6.40;;;3.30;;
48076;SDS011;33854;57.708;12.008;2022-07-18T14:52:48;8.97;;;4.27;;
48076;SDS011;33854;57.708;12.008;2022-07-18T14:55:14;6.87;;;3.70;;
48076;SDS011;33854;57.708;12.008;2022-07-18T14:57:39;8.83;;;4.43;;
48076;SDS011;33854;57.708;12.008;2022-07-18T15:00:05;11.30;;;3.50;;
48076;SDS011;33854;57.708;12.008;2022-07-18T15:02:33;7.40;;;4.45;;
48076;SDS011;33854;57.708;12.008;2022-07-18T15:05:00;7.43;;;3.60;;
48076;SDS011;33854;57.708;12.008;2022-07-18T15:07:25;9.70;;;3.95;;
48076;SDS011;33854;57.708;12.008;2022-07-18T15:09:51;5.63;;;4.22;;
48076;SDS011;33854;57.708;12.008;2022-07-18T15:12:16;7.50;;;4.37;;
48076;SDS011;33854;57.708;12.008;2022-07-18T15:14:42;8.83;;;4.13;;
48076;SDS011;33854;57.708;12.008;2022-07-18T15:17:07;10.43;;;3.53;;
48076;SDS011;33854;57.708;12.008;2022-07-18T15:19:33;6.72;;;3.75;;
48076;SDS011;33854;57.708;12.008;2022-07-18T15:21:59;6.93;;;3.80;;
48076;SDS011;33854;57.708;12.008;2022-07-18T15:24:24;6.63;;;4.13;;
48076;SDS011;33854;57.708;12.008;2022-07-18T15:26:50;9.40;;;4.47;;
48076;SDS011;33854;57.708;12.008;2022-07-18T15:29:15;10.17;;;4.10;;
48076;SDS011;33854;57.708;12.008;2022-07-18T15:31:41;8.20;;;3.83;;
48076;SDS011;33854;57.708;12.008;2022-07-18T15:34:06;7.40;;;4.00;;